Thursday, January 17, 2019, 8:52 PM EST
Back to Local

KBLM, Belmar-farmingdale

Location: Farmingdale, NJ, United States Lat: 40.183
Local Time: 8:52 PM EST ( 1:52 GMT) Lon: -74.133
Time Zone: US/Eastern Elev: 157 ft

Show me the last for .
Show Coded

Time T Td Feel RH Dir Speed Gust Alt SLP Vis Weather Sky Remarks
2019-01-17 19:56 29 21 24 71 340° 5 - 30.30 30.31 10 FEW032 None
2019-01-17 19:10 30 21 27 68 350° 3 - 30.31 - 10 SCT028 None
2019-01-17 18:56 30 21 - 68 - Calm - 30.31 30.33 10 BKN028 6-hr Min Temp (7pm): 28.9°F
6-hr Max Temp (7pm): 30.0°F
2019-01-17 18:27 30 19 27 63 30° 3 - 30.31 - 10 BKN028 None
2019-01-17 17:56 30 20 - 65 - Calm - 30.31 30.33 10 CLR None
2019-01-17 16:56 30 20 23 65 100° 7 - 30.31 30.33 10 CLR None
2019-01-17 15:56 30 19 24 63 110° 6 - 30.32 30.34 10 BKN120 None
2019-01-17 14:56 29 18 20 63 100° 9 - 30.33 30.35 10 CLR None
2019-01-17 13:56 29 15 20 55 110° 9 - 30.35 30.37 10 CLR None
2019-01-17 12:56 29 14 21 53 100° 8 - 30.35 30.37 10 CLR 6-hr Min Temp (1pm): 24.1°F
6-hr Max Temp (1pm): 30.9°F
2019-01-17 11:56 31 14 27 48 Variable 3 - 30.39 30.40 10 CLR None
2019-01-17 10:56 29 14 - 53 - Calm - 30.42 30.44 10 CLR None
2019-01-17 09:56 30 12 23 46 340° 7 - 30.42 30.44 10 CLR None
2019-01-17 08:56 27 9 19 45 360° 8 - 30.41 30.42 10 CLR None
2019-01-17 07:56 25 7 17 45 330° 7 - 30.39 30.40 10 CLR None
2019-01-17 06:56 25 6 17 43 330° 7 - 30.37 30.39 10 CLR 6-hr Min Temp (7am): 25.0°F
6-hr Max Temp (7am): 30.9°F
2019-01-17 05:56 27 10 19 48 330° 8 - 30.35 30.37 10 CLR None
2019-01-17 04:56 28 14 19 55 340° 10 - 30.33 30.35 10 CLR None
2019-01-17 03:56 28 17 20 62 340° 8 - 30.32 30.33 10 CLR None
2019-01-17 02:56 30 18 21 60 330° 12 - 30.30 30.32 10 CLR None
2019-01-17 01:56 30 20 23 65 320° 7 - 30.29 30.30 10 CLR None
2019-01-17 00:56 31 23 25 72 270° 6 - 30.26 30.27 10 CLR 6-hr Min Temp (1am): 30.0°F
6-hr Max Temp (1am): 35.1°F
2019-01-16 22:56 35 23 29 61 250° 7 - 30.23 30.24 10 OVC050 None
2019-01-16 21:56 35 22 30 58 260° 6 - 30.21 30.22 10 BKN055 None
2019-01-16 20:56 35 22 30 58 240° 6 - 30.18 30.19 10 OVC050 None

Support USWX by starting your Amazon purchase here.